createdAt,value
2022-10-31T00:00:26.453Z,91.29
2022-10-31T00:02:52.774Z,91.16
2022-10-31T00:05:19.123Z,90.83
2022-10-31T00:07:45.459Z,90.91
2022-10-31T00:10:11.810Z,91.00
2022-10-31T00:12:38.127Z,91.01
2022-10-31T00:15:04.766Z,90.72
2022-10-31T00:17:31.074Z,90.86
2022-10-31T00:19:57.776Z,90.95
2022-10-31T00:22:24.101Z,91.11
2022-10-31T00:24:50.404Z,90.83
2022-10-31T00:27:16.898Z,91.26
2022-10-31T00:29:43.226Z,91.50
2022-10-31T00:32:09.539Z,90.85
2022-10-31T00:34:35.867Z,91.16
2022-10-31T00:37:02.190Z,90.90
2022-10-31T00:39:28.502Z,90.90
2022-10-31T00:41:54.824Z,90.74
2022-10-31T00:44:21.139Z,90.89
2022-10-31T00:46:47.449Z,91.22
2022-10-31T00:49:13.758Z,91.10
2022-10-31T00:51:40.147Z,90.93
2022-10-31T00:54:06.566Z,90.80
2022-10-31T00:56:32.872Z,91.10
2022-10-31T00:58:59.436Z,91.02
2022-10-31T01:01:25.842Z,91.34
2022-10-31T01:03:52.202Z,91.18
2022-10-31T01:06:18.590Z,91.20
2022-10-31T01:08:48.129Z,91.23
2022-10-31T01:11:17.721Z,91.46
2022-10-31T01:13:45.167Z,91.39
2022-10-31T01:16:14.862Z,90.72
2022-10-31T01:18:41.894Z,91.04
2022-10-31T01:21:37.441Z,91.09
2022-10-31T01:24:04.084Z,90.88
2022-10-31T01:26:32.432Z,90.97
2022-10-31T01:29:01.290Z,91.09
2022-10-31T01:31:30.471Z,90.92
2022-10-31T01:33:57.445Z,91.08
2022-10-31T01:36:30.177Z,91.08
2022-10-31T01:39:02.155Z,91.24
2022-10-31T01:41:31.674Z,90.95
2022-10-31T01:44:01.265Z,91.19
2022-10-31T01:46:37.503Z,90.81
2022-10-31T01:49:10.422Z,90.55
2022-10-31T01:51:42.502Z,90.63
2022-10-31T01:54:13.324Z,90.77
2022-10-31T01:56:44.544Z,91.08
2022-10-31T01:59:14.972Z,90.84
2022-10-31T02:01:41.601Z,90.39
2022-10-31T02:04:08.786Z,90.04
2022-10-31T02:06:48.143Z,89.88
2022-10-31T02:09:15.206Z,90.15
2022-10-31T02:11:42.135Z,90.41
2022-10-31T02:14:08.477Z,90.57
2022-10-31T02:16:34.794Z,90.20
2022-10-31T02:19:01.118Z,90.04
2022-10-31T02:21:38.106Z,89.83
2022-10-31T02:24:32.252Z,90.02
2022-10-31T02:27:07.882Z,90.32
2022-10-31T02:30:15.609Z,90.48
2022-10-31T02:33:03.140Z,90.46
2022-10-31T02:35:48.199Z,90.57
2022-10-31T02:38:44.297Z,90.72
2022-10-31T02:41:10.531Z,90.73
2022-10-31T02:43:53.222Z,90.76
2022-10-31T02:46:28.814Z,90.59
2022-10-31T02:49:01.329Z,89.81
2022-10-31T02:51:28.171Z,89.52
2022-10-31T02:53:54.471Z,89.46
2022-10-31T02:56:20.894Z,89.97
2022-10-31T02:58:55.300Z,89.91
2022-10-31T03:01:28.487Z,89.37
2022-10-31T03:04:07.099Z,89.14
2022-10-31T03:06:40.362Z,88.87
2022-10-31T03:09:06.606Z,88.93
2022-10-31T03:12:04.660Z,88.38
2022-10-31T03:14:41.938Z,88.40
2022-10-31T03:17:16.234Z,88.35
2022-10-31T03:19:46.582Z,88.18
2022-10-31T03:22:22.637Z,88.46
2022-10-31T03:24:52.361Z,88.70
2022-10-31T03:27:24.180Z,88.78
2022-10-31T03:29:55.524Z,88.45
2022-10-31T03:32:42.062Z,88.73
2022-10-31T03:35:10.919Z,88.76
2022-10-31T03:37:41.413Z,88.73
2022-10-31T03:40:10.119Z,88.97
2022-10-31T03:42:41.442Z,88.80
2022-10-31T03:45:19.944Z,88.77
2022-10-31T03:47:46.416Z,88.56
2022-10-31T03:50:15.298Z,88.74
2022-10-31T03:52:56.988Z,89.14
2022-10-31T03:55:40.136Z,88.89
2022-10-31T03:58:12.048Z,88.60
2022-10-31T04:00:43.013Z,88.45
2022-10-31T04:03:23.889Z,88.72
2022-10-31T04:05:54.206Z,87.99
2022-10-31T04:08:24.571Z,88.52
2022-10-31T04:10:53.500Z,88.85
2022-10-31T04:13:30.401Z,88.99
2022-10-31T04:15:57.507Z,89.09
2022-10-31T04:18:24.990Z,89.45
2022-10-31T04:21:01.558Z,89.68
2022-10-31T04:23:29.181Z,89.73
2022-10-31T04:25:55.748Z,89.49
2022-10-31T04:28:22.478Z,89.34
2022-10-31T04:30:48.857Z,89.14
2022-10-31T04:33:15.180Z,89.45
2022-10-31T04:35:41.523Z,89.46
2022-10-31T04:38:07.835Z,89.20
2022-10-31T04:40:34.130Z,89.25
2022-10-31T04:43:00.755Z,89.35
2022-10-31T04:45:27.326Z,89.42
2022-10-31T04:47:53.619Z,89.32
2022-10-31T04:50:19.954Z,89.46
2022-10-31T04:52:47.273Z,89.34
2022-10-31T04:55:14.722Z,89.34
2022-10-31T04:57:45.082Z,89.23
2022-10-31T05:00:12.796Z,89.25
2022-10-31T05:02:46.497Z,89.10
2022-10-31T05:05:15.021Z,89.19
2022-10-31T05:07:43.337Z,88.93
2022-10-31T05:10:14.842Z,88.72
2022-10-31T05:12:52.743Z,88.54
2022-10-31T05:15:21.263Z,88.72
2022-10-31T05:17:47.877Z,88.66
2022-10-31T05:20:16.545Z,88.41
2022-10-31T05:22:54.169Z,88.55
2022-10-31T05:25:23.356Z,88.97
2022-10-31T05:27:51.767Z,89.18
2022-10-31T05:30:21.199Z,89.39
2022-10-31T05:32:49.044Z,89.20
2022-10-31T05:35:35.692Z,89.28
2022-10-31T05:38:02.194Z,89.25
2022-10-31T05:40:29.194Z,89.30
2022-10-31T05:42:57.672Z,89.09
2022-10-31T05:45:24.805Z,89.19
2022-10-31T05:48:02.572Z,89.14
2022-10-31T05:50:31.849Z,89.55
2022-10-31T05:53:03.946Z,89.59
2022-10-31T05:55:31.092Z,89.69
2022-10-31T05:57:57.753Z,89.82
2022-10-31T06:00:25.264Z,89.87
2022-10-31T06:02:59.715Z,89.87
2022-10-31T06:05:26.371Z,89.80
2022-10-31T06:07:52.664Z,89.95
2022-10-31T06:10:20.290Z,90.22
2022-10-31T06:12:46.613Z,89.97
2022-10-31T06:15:12.919Z,89.91
2022-10-31T06:17:39.247Z,90.08
2022-10-31T06:20:06.845Z,89.85
2022-10-31T06:22:33.486Z,89.93
2022-10-31T06:25:00.033Z,89.99
2022-10-31T06:27:26.563Z,90.32
2022-10-31T06:29:52.958Z,90.74
2022-10-31T06:32:19.811Z,90.73
2022-10-31T06:34:49.064Z,90.65
2022-10-31T06:37:15.969Z,90.45
2022-10-31T06:39:42.291Z,90.38
2022-10-31T06:42:08.620Z,90.20
2022-10-31T06:44:34.922Z,89.86
2022-10-31T06:47:01.261Z,90.13
2022-10-31T06:49:27.614Z,90.19
2022-10-31T06:51:54.002Z,90.32
2022-10-31T06:54:20.349Z,90.29
2022-10-31T06:56:48.316Z,90.33
2022-10-31T06:59:15.620Z,90.51
2022-10-31T07:01:42.445Z,90.68
2022-10-31T07:04:12.293Z,90.90
2022-10-31T07:06:38.832Z,90.99
2022-10-31T07:09:05.660Z,90.89
2022-10-31T07:11:32.242Z,91.01
2022-10-31T07:13:58.562Z,91.26
2022-10-31T07:16:25.087Z,91.42
2022-10-31T07:18:51.558Z,91.49
2022-10-31T07:21:17.913Z,91.39
2022-10-31T07:23:44.218Z,91.49
2022-10-31T07:26:11.746Z,91.25
2022-10-31T07:28:38.113Z,91.52
2022-10-31T07:31:05.469Z,91.37
2022-10-31T07:33:32.970Z,91.39
2022-10-31T07:36:01.457Z,91.19
2022-10-31T07:38:29.151Z,91.27
2022-10-31T07:40:56.575Z,91.31
2022-10-31T07:43:24.178Z,91.63
2022-10-31T07:45:53.508Z,91.68
2022-10-31T07:48:21.711Z,91.76
2022-10-31T07:50:49.079Z,91.63
2022-10-31T07:53:16.759Z,91.52
2022-10-31T07:55:44.996Z,91.42
2022-10-31T07:58:15.563Z,91.10
2022-10-31T08:00:45.301Z,90.99
2022-10-31T08:03:15.051Z,91.29
2022-10-31T08:05:42.928Z,91.13
2022-10-31T08:08:11.079Z,91.20
2022-10-31T08:10:38.941Z,91.34
2022-10-31T08:13:14.772Z,91.51
2022-10-31T08:15:43.315Z,91.51
2022-10-31T08:18:15.158Z,91.37
2022-10-31T08:20:43.385Z,91.38
2022-10-31T08:23:12.151Z,91.19
2022-10-31T08:25:39.855Z,90.99
2022-10-31T08:28:08.207Z,91.05
2022-10-31T08:30:38.528Z,90.78
2022-10-31T08:33:12.402Z,90.88
2022-10-31T08:35:39.955Z,90.98
2022-10-31T08:38:08.919Z,90.84
2022-10-31T08:40:39.181Z,90.79
2022-10-31T08:43:10.389Z,90.52
2022-10-31T08:45:37.588Z,90.30
2022-10-31T08:48:07.610Z,90.40
2022-10-31T08:50:36.728Z,90.47
2022-10-31T08:53:12.979Z,90.44
2022-10-31T08:55:41.127Z,90.60
2022-10-31T08:58:13.908Z,90.21
2022-10-31T09:00:41.434Z,90.31
2022-10-31T09:03:13.747Z,90.06
2022-10-31T09:05:41.404Z,90.05
2022-10-31T09:08:14.775Z,90.61
2022-10-31T09:10:43.926Z,90.40
2022-10-31T09:13:14.048Z,90.41
2022-10-31T09:15:42.695Z,89.77
2022-10-31T09:18:10.129Z,89.44
2022-10-31T09:20:38.293Z,89.54
2022-10-31T09:23:07.622Z,89.77
2022-10-31T09:25:36.279Z,90.24
2022-10-31T09:28:04.885Z,90.52
2022-10-31T09:30:33.916Z,90.74
2022-10-31T09:33:03.039Z,91.22
2022-10-31T09:35:30.337Z,90.93
2022-10-31T09:37:59.126Z,91.10
2022-10-31T09:40:32.770Z,91.21
2022-10-31T09:43:32.763Z,91.06
2022-10-31T09:46:30.890Z,91.30
2022-10-31T09:49:11.300Z,91.71
2022-10-31T09:51:52.961Z,92.35
2022-10-31T09:54:26.922Z,92.19
2022-10-31T09:56:53.711Z,92.51
2022-10-31T09:59:34.299Z,92.03
2022-10-31T10:02:47.044Z,91.87
2022-10-31T10:05:20.690Z,91.46
2022-10-31T10:08:12.955Z,91.06
2022-10-31T10:10:55.552Z,91.17
2022-10-31T10:13:52.300Z,90.99
2022-10-31T10:16:21.626Z,90.02
2022-10-31T10:18:59.857Z,89.76
2022-10-31T10:21:40.531Z,89.05
2022-10-31T10:24:15.916Z,89.59
2022-10-31T10:26:51.450Z,89.11
2022-10-31T10:29:31.960Z,88.77
2022-10-31T10:32:02.348Z,88.50
2022-10-31T10:34:38.143Z,88.47
2022-10-31T10:37:12.838Z,88.77
2022-10-31T10:39:44.287Z,88.99
2022-10-31T10:42:35.458Z,88.63
2022-10-31T10:45:34.123Z,88.51
2022-10-31T10:48:10.375Z,88.32
2022-10-31T10:50:45.404Z,88.22
2022-10-31T10:53:32.594Z,86.66
2022-10-31T10:56:17.692Z,87.50
2022-10-31T10:58:44.264Z,87.40
2022-10-31T11:03:43.065Z,87.48
2022-10-31T11:06:23.060Z,86.89
2022-10-31T11:08:50.667Z,86.10
2022-10-31T11:11:28.855Z,85.60
2022-10-31T11:14:13.242Z,86.33
2022-10-31T11:16:43.536Z,86.48
2022-10-31T11:19:12.589Z,86.22
2022-10-31T11:21:39.111Z,86.42
2022-10-31T11:24:11.543Z,86.52
2022-10-31T11:26:40.241Z,85.09
2022-10-31T11:29:14.785Z,85.48
2022-10-31T11:31:41.822Z,85.19
2022-10-31T11:34:16.979Z,84.49
2022-10-31T11:36:45.245Z,84.72
2022-10-31T11:39:21.475Z,85.36
2022-10-31T11:41:49.186Z,85.01
2022-10-31T11:44:20.589Z,84.94
2022-10-31T11:46:52.693Z,84.70
2022-10-31T11:49:31.850Z,84.84
2022-10-31T11:52:02.701Z,84.38
2022-10-31T11:54:31.935Z,84.42
2022-10-31T11:56:58.288Z,84.63
2022-10-31T11:59:32.717Z,84.42
2022-10-31T12:02:01.296Z,84.31
2022-10-31T12:04:51.766Z,84.40
2022-10-31T12:07:18.086Z,83.61
2022-10-31T12:09:44.437Z,84.27
2022-10-31T12:12:35.417Z,84.82
2022-10-31T12:15:10.885Z,84.12
2022-10-31T12:18:01.512Z,84.55
2022-10-31T12:20:49.732Z,84.52
2022-10-31T12:23:34.965Z,84.79
2022-10-31T12:26:11.617Z,84.63
2022-10-31T12:28:49.885Z,84.37
2022-10-31T12:31:30.131Z,83.77
2022-10-31T12:34:02.455Z,83.22
2022-10-31T12:36:43.875Z,83.19
2022-10-31T12:39:19.629Z,82.81
2022-10-31T12:42:19.353Z,83.49
2022-10-31T12:45:21.199Z,83.97
2022-10-31T12:48:05.591Z,82.96
2022-10-31T12:51:21.347Z,82.86
2022-10-31T12:54:34.790Z,82.87
2022-10-31T12:57:19.127Z,82.68
2022-10-31T12:59:53.925Z,82.71
2022-10-31T13:02:43.571Z,83.08
2022-10-31T13:05:34.019Z,82.73
2022-10-31T13:08:15.324Z,81.75
2022-10-31T13:13:45.514Z,82.29
2022-10-31T13:16:21.150Z,82.19
2022-10-31T13:18:52.906Z,82.70
2022-10-31T13:21:27.161Z,82.52
2022-10-31T13:23:55.678Z,83.28
2022-10-31T13:26:33.973Z,82.83
2022-10-31T13:29:10.047Z,82.88
2022-10-31T13:31:41.081Z,83.28
2022-10-31T13:34:19.201Z,83.14
2022-10-31T13:37:16.659Z,83.48
2022-10-31T13:39:49.412Z,83.20
2022-10-31T13:42:24.548Z,83.23
2022-10-31T13:44:50.897Z,83.24
2022-10-31T13:47:26.887Z,82.70
2022-10-31T13:50:19.521Z,82.49
2022-10-31T13:52:46.348Z,83.19
2022-10-31T13:55:40.757Z,82.96
2022-10-31T13:58:39.700Z,82.95
2022-10-31T14:01:11.877Z,82.23
2022-10-31T14:04:06.125Z,81.72
2022-10-31T14:06:38.504Z,82.43
2022-10-31T14:09:05.626Z,81.72
2022-10-31T14:11:36.106Z,81.53
2022-10-31T14:14:03.990Z,81.23
2022-10-31T14:16:32.941Z,82.10
2022-10-31T14:19:06.659Z,82.19
2022-10-31T14:21:41.426Z,81.65
2022-10-31T14:24:26.123Z,82.17
2022-10-31T14:26:58.102Z,82.18
2022-10-31T14:29:32.573Z,82.35
2022-10-31T14:32:20.381Z,82.30
2022-10-31T14:34:58.550Z,82.36
2022-10-31T14:37:50.409Z,82.95
2022-10-31T14:40:26.961Z,82.64
2022-10-31T14:43:15.230Z,82.33
2022-10-31T14:45:49.167Z,82.40
2022-10-31T14:48:37.762Z,82.93
2022-10-31T14:51:13.177Z,83.13
2022-10-31T14:53:56.064Z,83.36
2022-10-31T14:56:27.224Z,83.45
2022-10-31T14:58:56.295Z,83.38
2022-10-31T15:01:54.520Z,83.53
2022-10-31T15:04:27.293Z,83.79
2022-10-31T15:07:01.359Z,83.98
2022-10-31T15:09:30.908Z,84.14
2022-10-31T15:12:00.188Z,84.66
2022-10-31T15:14:29.446Z,84.56
2022-10-31T15:17:01.917Z,84.41
2022-10-31T15:19:31.173Z,84.42
2022-10-31T15:21:58.692Z,84.52
2022-10-31T15:24:36.013Z,84.67
2022-10-31T15:27:05.139Z,84.72
2022-10-31T15:29:32.386Z,84.84
2022-10-31T15:32:01.728Z,85.13
2022-10-31T15:34:39.029Z,85.41
2022-10-31T15:37:10.182Z,85.17
2022-10-31T15:39:36.490Z,85.16
2022-10-31T15:42:03.023Z,85.07
2022-10-31T15:44:36.194Z,85.27
2022-10-31T15:47:07.397Z,84.83
2022-10-31T15:49:51.040Z,84.44
2022-10-31T15:52:35.702Z,84.48
2022-10-31T15:55:06.600Z,84.24
2022-10-31T15:57:33.869Z,83.80
2022-10-31T16:00:00.216Z,84.04
2022-10-31T16:02:28.322Z,84.17
2022-10-31T16:05:01.959Z,84.49
2022-10-31T16:07:30.253Z,84.37
2022-10-31T16:09:59.697Z,84.50
2022-10-31T16:12:33.282Z,84.65
2022-10-31T16:14:59.620Z,84.89
2022-10-31T16:17:28.256Z,84.74
2022-10-31T16:19:59.678Z,84.95
2022-10-31T16:22:29.776Z,84.96
2022-10-31T16:25:05.164Z,85.27
2022-10-31T16:27:34.471Z,85.69
2022-10-31T16:30:04.513Z,85.38
2022-10-31T16:32:54.444Z,85.76
2022-10-31T16:35:32.441Z,85.40
2022-10-31T16:37:58.850Z,85.47
2022-10-31T16:40:25.792Z,85.11
2022-10-31T16:42:52.944Z,85.78
2022-10-31T16:45:25.861Z,85.74
2022-10-31T16:47:53.017Z,86.01
2022-10-31T16:50:25.905Z,85.76
2022-10-31T16:53:12.449Z,86.11
2022-10-31T16:55:47.675Z,86.05
2022-10-31T16:58:35.314Z,86.05
2022-10-31T17:01:06.657Z,86.29
2022-10-31T17:03:33.711Z,86.91
2022-10-31T17:06:00.062Z,86.91
2022-10-31T17:08:26.404Z,87.10
2022-10-31T17:10:55.897Z,87.02
2022-10-31T17:13:25.947Z,86.87
2022-10-31T17:15:56.458Z,86.95
2022-10-31T17:18:27.398Z,87.41
2022-10-31T17:21:03.225Z,87.12
2022-10-31T17:23:30.283Z,87.11
2022-10-31T17:25:57.216Z,87.58
2022-10-31T17:28:23.588Z,87.74
2022-10-31T17:30:50.115Z,87.31
2022-10-31T17:38:58.049Z,87.46
2022-10-31T17:49:42.841Z,87.63
2022-10-31T17:52:15.201Z,87.63
2022-10-31T17:54:45.822Z,87.80
2022-10-31T17:57:13.691Z,88.55
2022-10-31T17:59:40.101Z,88.76
2022-10-31T18:02:08.787Z,89.14
2022-10-31T18:04:35.693Z,89.02
2022-10-31T18:07:02.483Z,89.68
2022-10-31T18:09:28.802Z,89.03
2022-10-31T18:11:55.222Z,89.32
2022-10-31T18:14:21.544Z,89.30
2022-10-31T18:16:47.909Z,89.97
2022-10-31T18:19:16.114Z,89.75
2022-10-31T18:21:44.381Z,89.66
2022-10-31T18:24:10.721Z,89.58
2022-10-31T18:26:37.189Z,89.70
2022-10-31T18:29:04.001Z,89.03
2022-10-31T18:31:30.350Z,89.40
2022-10-31T18:33:57.458Z,89.31
2022-10-31T18:36:24.385Z,89.11
2022-10-31T18:38:50.740Z,89.12
2022-10-31T18:41:17.166Z,89.71
2022-10-31T18:43:43.482Z,89.14
2022-10-31T18:46:13.304Z,90.08
2022-10-31T18:48:43.989Z,90.34
2022-10-31T18:51:14.106Z,90.45
2022-10-31T18:53:40.660Z,90.75
2022-10-31T18:56:08.693Z,90.82
2022-10-31T18:58:35.470Z,91.00
2022-10-31T19:01:09.522Z,91.11
2022-10-31T19:03:36.906Z,91.30
2022-10-31T19:06:03.799Z,90.60
2022-10-31T19:08:31.066Z,90.99
2022-10-31T19:11:05.206Z,91.08
2022-10-31T19:13:32.935Z,90.98
2022-10-31T19:16:10.781Z,91.19
2022-10-31T19:18:38.085Z,90.54
2022-10-31T19:21:08.382Z,91.15
2022-10-31T19:23:35.289Z,90.87
2022-10-31T19:26:02.771Z,91.10
2022-10-31T19:28:31.143Z,90.96
2022-10-31T19:30:58.073Z,90.83
2022-10-31T19:33:29.468Z,90.94
2022-10-31T19:36:09.513Z,90.96
2022-10-31T19:38:37.382Z,90.77
2022-10-31T19:41:07.343Z,90.74
2022-10-31T19:43:34.201Z,90.71
2022-10-31T19:46:02.566Z,90.61
2022-10-31T19:48:29.138Z,90.10
2022-10-31T19:51:04.629Z,89.80
2022-10-31T19:53:31.768Z,89.60
2022-10-31T19:55:58.643Z,89.45
2022-10-31T19:58:25.566Z,89.30
2022-10-31T20:00:52.067Z,89.11
2022-10-31T20:03:21.591Z,88.75
2022-10-31T20:05:50.150Z,88.79
2022-10-31T20:08:19.336Z,88.99
2022-10-31T20:11:03.675Z,88.59
2022-10-31T20:13:32.129Z,88.42
2022-10-31T20:16:01.034Z,88.36
2022-10-31T20:18:27.794Z,88.20
2022-10-31T20:20:54.318Z,88.22
2022-10-31T20:23:20.655Z,87.90
2022-10-31T20:25:48.840Z,88.08
2022-10-31T20:28:15.584Z,88.00
2022-10-31T20:30:42.726Z,87.87
2022-10-31T20:33:09.045Z,87.84
2022-10-31T20:35:40.106Z,87.79
2022-10-31T20:38:08.010Z,87.70
2022-10-31T20:40:35.273Z,87.48
2022-10-31T20:43:02.899Z,87.45
2022-10-31T20:45:30.454Z,87.51
2022-10-31T20:47:57.863Z,87.44
2022-10-31T20:50:25.602Z,87.12
2022-10-31T20:52:52.344Z,87.21
2022-10-31T20:55:18.786Z,87.05
2022-10-31T20:57:45.143Z,86.95
2022-10-31T21:00:15.187Z,86.98
2022-10-31T21:02:42.934Z,86.86
2022-10-31T21:05:12.833Z,87.11
2022-10-31T21:07:39.713Z,86.88
2022-10-31T21:10:15.982Z,87.06
2022-10-31T21:12:44.177Z,87.10
2022-10-31T21:15:12.325Z,87.09
2022-10-31T21:17:38.613Z,86.86
2022-10-31T21:20:06.853Z,87.06
2022-10-31T21:22:33.853Z,86.53
2022-10-31T21:25:00.417Z,86.25
2022-10-31T21:27:26.898Z,86.35
2022-10-31T21:29:53.369Z,85.86
2022-10-31T21:32:19.722Z,85.82
2022-10-31T21:34:48.089Z,85.35
2022-10-31T21:37:14.386Z,85.32
2022-10-31T21:39:40.684Z,84.91
2022-10-31T21:42:07.000Z,84.78
2022-10-31T21:44:33.597Z,84.77
2022-10-31T21:46:59.915Z,84.90
2022-10-31T21:49:26.216Z,84.62
2022-10-31T21:51:52.514Z,84.77
2022-10-31T21:54:27.910Z,84.53
2022-10-31T21:56:55.612Z,84.37
2022-10-31T21:59:22.108Z,84.05
2022-10-31T22:01:48.992Z,84.42
2022-10-31T22:04:15.696Z,84.33
2022-10-31T22:06:42.106Z,84.46
2022-10-31T22:09:11.606Z,84.20
2022-10-31T22:11:39.804Z,84.25
2022-10-31T22:14:06.162Z,84.06
2022-10-31T22:16:35.984Z,84.58
2022-10-31T22:19:05.628Z,84.26
2022-10-31T22:21:44.150Z,83.98
2022-10-31T22:24:11.168Z,84.21
2022-10-31T22:26:38.533Z,84.04
2022-10-31T22:29:07.523Z,84.09
2022-10-31T22:31:37.106Z,84.17
2022-10-31T22:34:03.396Z,84.38
2022-10-31T22:36:32.026Z,84.09
2022-10-31T22:38:59.027Z,83.80
2022-10-31T22:41:28.501Z,83.90
2022-10-31T22:43:55.994Z,84.05
2022-10-31T22:46:24.958Z,84.05
2022-10-31T22:48:55.771Z,84.09
2022-10-31T22:51:24.800Z,84.11
2022-10-31T22:53:51.658Z,83.97
2022-10-31T22:56:20.531Z,83.85
2022-10-31T22:58:48.222Z,83.78
2022-10-31T23:01:17.892Z,83.68
2022-10-31T23:03:45.130Z,83.51
2022-10-31T23:06:14.341Z,83.70
2022-10-31T23:08:41.342Z,83.85
2022-10-31T23:11:19.882Z,83.64
2022-10-31T23:14:06.950Z,83.89
2022-10-31T23:16:34.261Z,84.01
2022-10-31T23:19:01.470Z,84.30
2022-10-31T23:21:46.439Z,84.32
2022-10-31T23:24:12.779Z,85.01
2022-10-31T23:26:58.534Z,84.67
2022-10-31T23:29:24.973Z,85.41
2022-10-31T23:31:54.527Z,85.11
2022-10-31T23:34:22.407Z,84.96
2022-10-31T23:36:49.180Z,85.40
2022-10-31T23:39:15.502Z,85.24
2022-10-31T23:41:42.037Z,85.29
2022-10-31T23:44:08.373Z,85.94
2022-10-31T23:46:35.189Z,85.91
2022-10-31T23:49:01.600Z,85.67
2022-10-31T23:51:27.893Z,85.89
2022-10-31T23:53:54.187Z,85.88
2022-10-31T23:56:20.573Z,85.99
2022-10-31T23:58:46.910Z,86.34
